Time;durP1;ratioP1;P1;durP2;ratioP2;P2;SDS_P1;SDS_P2;PMS_P1;PMS_P2;Temp;Humidity;BMP_temperature;BMP_pressure;BME280_temperature;BME280_humidity;BME280_pressure;Samples;Min_cycle;Max_cycle;Signal;HPM_P1;HPM_P2
2022/01/31 00:01:34;;;;;;;;;61.50;46.75;14.70;99.90;;;;;;5074582;28;9463;-74
2022/01/31 00:04:01;;;;;;;;;60.20;48.60;14.70;99.90;;;;;;5075995;28;8740;-75
2022/01/31 00:06:27;;;;;;;;;59.25;46.50;14.70;99.90;;;;;;5069910;28;8755;-76
2022/01/31 00:08:54;;;;;;;;;61.75;48.50;14.70;99.90;;;;;;5038499;28;8735;-75
2022/01/31 00:11:22;;;;;;;;;59.00;46.00;14.60;99.90;;;;;;5055142;28;8728;-74
2022/01/31 00:13:58;;;;;;;;;61.25;48.25;14.60;99.90;;;;;;5038567;28;8762;-75
2022/01/31 00:16:31;;;;;;;;;65.25;51.75;14.60;99.90;;;;;;5041794;28;8801;-75
2022/01/31 00:18:58;;;;;;;;;57.00;46.25;14.60;99.90;;;;;;5055679;28;8725;-75
2022/01/31 00:21:24;;;;;;;;;67.40;50.60;14.70;99.90;;;;;;5059919;28;8760;-75
2022/01/31 00:23:51;;;;;;;;;58.25;49.25;14.70;99.90;;;;;;5075130;28;9013;-75
2022/01/31 00:26:18;;;;;;;;;70.20;51.00;14.70;99.90;;;;;;5074734;28;8749;-75
2022/01/31 00:28:45;;;;;;;;;63.40;47.20;14.70;99.90;;;;;;5076801;28;8787;-75
2022/01/31 00:31:12;;;;;;;;;80.40;61.40;14.80;99.90;;;;;;5063039;28;8890;-74
2022/01/31 00:33:38;;;;;;;;;84.40;68.20;14.80;99.90;;;;;;5077853;28;8780;-75
2022/01/31 00:36:05;;;;;;;;;88.80;74.60;14.80;99.90;;;;;;5078028;28;8823;-75
2022/01/31 00:38:32;;;;;;;;;79.00;59.20;14.90;99.90;;;;;;5062138;28;8761;-74
2022/01/31 00:40:58;;;;;;;;;77.20;62.20;14.80;99.90;;;;;;5078147;28;8771;-73
2022/01/31 00:43:25;;;;;;;;;84.40;69.40;14.90;99.90;;;;;;5045119;28;8756;-74
2022/01/31 00:46:01;;;;;;;;;77.40;57.40;15.00;99.90;;;;;;5061788;28;8745;-76
2022/01/31 00:48:30;;;;;;;;;78.20;60.40;15.10;99.90;;;;;;5062147;28;9504;-73
2022/01/31 00:50:57;;;;;;;;;78.40;58.60;15.30;99.90;;;;;;5060381;28;8764;-76
2022/01/31 00:53:23;;;;;;;;;71.40;55.40;15.30;99.90;;;;;;5024043;28;8784;-76
2022/01/31 00:55:50;;;;;;;;;76.00;58.20;15.40;99.90;;;;;;5024422;28;8775;-74
2022/01/31 00:58:17;;;;;;;;;70.40;55.00;15.50;99.90;;;;;;5041447;28;8759;-76
2022/01/31 01:00:43;;;;;;;;;69.60;54.20;15.60;99.90;;;;;;5040078;28;8866;-75
2022/01/31 01:03:10;;;;;;;;;74.20;56.60;15.70;99.90;;;;;;5040128;28;8763;-76
2022/01/31 01:05:37;;;;;;;;;66.80;50.20;15.70;99.90;;;;;;5023933;28;8795;-75
2022/01/31 01:08:04;;;;;;;;;69.60;53.60;15.70;99.90;;;;;;5073974;28;9450;-75
2022/01/31 01:10:31;;;;;;;;;67.60;51.40;15.80;99.90;;;;;;5059840;28;8775;-74
2022/01/31 01:12:58;;;;;;;;;73.40;55.00;15.90;99.90;;;;;;5043756;28;8760;-75
2022/01/31 01:15:25;;;;;;;;;72.20;54.20;16.00;99.90;;;;;;5059785;28;8748;-75
2022/01/31 01:17:51;;;;;;;;;71.40;55.00;16.20;99.90;;;;;;5059006;28;8784;-73
2022/01/31 01:20:18;;;;;;;;;67.80;52.40;16.20;99.90;;;;;;5058984;28;8795;-75
2022/01/31 01:22:45;;;;;;;;;74.40;53.80;16.30;99.90;;;;;;5039676;28;9033;-73
2022/01/31 01:25:13;;;;;;;;;69.40;53.40;16.40;99.90;;;;;;5041138;28;8759;-72
2022/01/31 01:27:42;;;;;;;;;72.40;55.20;16.50;99.90;;;;;;5040050;28;8810;-73
2022/01/31 01:30:11;;;;;;;;;67.60;52.60;16.60;99.90;;;;;;5040764;28;8748;-74
2022/01/31 01:32:48;;;;;;;;;63.40;50.60;16.70;99.90;;;;;;5040753;28;8787;-72
2022/01/31 01:35:15;;;;;;;;;71.40;53.40;16.70;99.90;;;;;;5042276;28;8795;-72
2022/01/31 01:37:41;;;;;;;;;69.20;53.00;16.80;99.90;;;;;;5055224;28;8733;-72
2022/01/31 01:40:08;;;;;;;;;65.60;49.00;17.00;99.90;;;;;;5075749;28;8756;-72
2022/01/31 01:42:35;;;;;;;;;68.20;54.00;17.00;99.90;;;;;;5059267;28;8765;-73
2022/01/31 01:45:02;;;;;;;;;68.40;51.40;17.10;99.90;;;;;;5059928;28;8756;-73
2022/01/31 01:47:29;;;;;;;;;68.60;54.40;17.10;99.90;;;;;;5074635;28;8910;-74
2022/01/31 01:49:55;;;;;;;;;71.80;55.60;17.20;99.90;;;;;;5074843;28;8780;-73
2022/01/31 01:52:22;;;;;;;;;70.60;53.80;17.20;99.90;;;;;;5064031;28;8747;-73
2022/01/31 01:54:49;;;;;;;;;64.60;51.00;17.30;99.90;;;;;;5055657;28;8855;-73
2022/01/31 01:57:20;;;;;;;;;65.60;51.00;17.50;99.90;;;;;;5039128;28;8747;-76
2022/01/31 01:59:47;;;;;;;;;71.20;52.80;17.60;99.90;;;;;;5039922;28;8747;-74
2022/01/31 02:02:14;;;;;;;;;72.20;53.40;17.70;99.90;;;;;;5056194;28;8909;-72
2022/01/31 02:04:43;;;;;;;;;62.00;49.40;17.90;99.90;;;;;;5040274;28;8746;-76
2022/01/31 02:07:12;;;;;;;;;68.20;50.20;18.00;99.90;;;;;;5057252;28;8759;-75
2022/01/31 02:09:45;;;;;;;;;58.00;46.00;18.10;99.90;;;;;;5055843;28;9153;-74
2022/01/31 02:12:12;;;;;;;;;56.50;44.75;18.20;99.90;;;;;;5056806;28;9436;-79
2022/01/31 02:14:39;;;;;;;;;58.75;43.75;18.20;99.90;;;;;;5039342;28;8755;-75
2022/01/31 02:17:05;;;;;;;;;;;18.30;99.90;;;;;;5059864;28;8771;-73
2022/01/31 02:19:33;;;;;;;;;48.00;40.25;18.40;99.90;;;;;;5057301;28;9036;-76
2022/01/31 02:21:59;;;;;;;;;59.00;45.25;18.40;99.90;;;;;;5066733;28;8848;-74
2022/01/31 02:24:27;;;;;;;;;52.25;42.00;18.40;99.90;;;;;;5077095;28;8753;-75
2022/01/31 02:26:53;;;;;;;;;57.25;41.75;18.50;99.90;;;;;;5074810;28;8748;-74
2022/01/31 02:29:20;;;;;;;;;55.00;43.00;18.60;99.90;;;;;;5059032;28;8741;-74
2022/01/31 02:31:47;;;;;;;;;57.50;44.00;18.70;99.90;;;;;;5059177;28;8975;-73
2022/01/31 02:34:15;;;;;;;;;52.00;40.75;18.80;99.90;;;;;;5076523;28;8733;-74
2022/01/31 02:36:41;;;;;;;;;60.25;45.50;18.90;99.90;;;;;;5069310;28;8736;-75
2022/01/31 02:39:08;;;;;;;;;59.25;44.00;18.90;99.90;;;;;;5039363;28;8794;-73
2022/01/31 02:41:45;;;;;;;;;57.50;45.00;18.90;99.90;;;;;;5038994;28;8779;-76
2022/01/31 02:44:15;;;;;;;;;57.75;44.50;19.00;99.90;;;;;;5055847;28;9420;-83
2022/01/31 02:46:50;;;;;;;;;56.00;44.50;19.10;99.90;;;;;;5040010;28;8858;-78
2022/01/31 02:49:20;;;;;;;;;57.75;40.75;19.10;99.90;;;;;;5040141;28;8749;-84
2022/01/31 02:51:50;;;;;;;;;57.00;41.75;19.20;99.90;;;;;;5063041;28;8754;-85
2022/01/31 02:54:17;;;;;;;;;50.00;39.75;19.10;99.40;;;;;;5076038;28;8701;-82
2022/01/31 02:56:44;;;;;;;;;53.50;41.25;19.20;98.80;;;;;;5076053;28;8773;-87
2022/01/31 02:59:11;;;;;;;;;47.75;38.25;19.30;98.10;;;;;;5076600;28;8732;-85
2022/01/31 03:01:38;;;;;;;;;51.75;39.75;19.40;98.40;;;;;;5075191;28;8819;-78
2022/01/31 03:04:05;;;;;;;;;49.00;40.50;19.60;98.40;;;;;;5077177;28;8757;-86
2022/01/31 03:06:32;;;;;;;;;50.00;40.50;19.70;98.10;;;;;;5071316;28;8763;-86
2022/01/31 03:08:59;;;;;;;;;48.50;38.00;19.90;97.90;;;;;;5056026;28;8771;-78
2022/01/31 03:11:25;;;;;;;;;55.75;40.50;20.10;98.40;;;;;;5055944;28;8909;-85
2022/01/31 03:13:52;;;;;;;;;51.50;38.50;20.20;97.40;;;;;;5039997;28;8744;-86
2022/01/31 03:16:20;;;;;;;;;52.00;39.75;20.30;96.70;;;;;;5040425;28;8775;-80
2022/01/31 03:18:46;;;;;;;;;48.25;36.00;20.40;96.80;;;;;;5057044;28;8771;-82
2022/01/31 03:21:14;;;;;;;;;42.50;35.00;20.60;96.20;;;;;;5058211;28;8992;-75
2022/01/31 03:23:41;;;;;;;;;38.25;33.00;20.70;95.70;;;;;;5058522;28;8876;-77
2022/01/31 03:26:08;;;;;;;;;44.00;36.75;20.70;94.40;;;;;;5074512;28;9041;-72
2022/01/31 03:28:35;;;;;;;;;45.50;35.00;20.80;94.60;;;;;;5074963;28;8899;-77
2022/01/31 03:31:02;;;;;;;;;50.00;39.00;20.90;95.30;;;;;;5092519;28;8741;-82
2022/01/31 03:33:28;;;;;;;;;36.00;29.75;21.10;95.20;;;;;;5074355;28;8830;-78
2022/01/31 03:35:55;;;;;;;;;46.25;37.00;21.20;94.40;;;;;;5056456;28;8827;-76
2022/01/31 03:38:22;;;;;;;;;46.75;36.25;21.20;94.70;;;;;;5036837;28;8975;-74
2022/01/31 03:40:48;;;;;;;;;48.25;37.25;21.40;94.40;;;;;;5038114;28;8763;-77
2022/01/31 03:43:15;;;;;;;;;43.50;35.50;21.50;94.40;;;;;;5038831;28;8763;-79
2022/01/31 03:45:42;;;;;;;;;43.50;35.75;21.50;93.50;;;;;;5054483;28;8736;-84
2022/01/31 03:48:09;;;;;;;;;47.75;40.75;21.60;93.40;;;;;;5021722;28;8885;-74
2022/01/31 03:50:39;;;;;;;;;49.50;39.25;21.60;93.00;;;;;;5037854;28;8755;-77
2022/01/31 03:53:05;;;;;;;;;48.75;39.25;21.60;92.70;;;;;;5035695;28;8858;-76
2022/01/31 03:55:32;;;;;;;;;45.00;36.75;21.60;93.50;;;;;;5055047;28;8739;-77
2022/01/31 03:58:02;;;;;;;;;48.50;36.75;21.80;93.80;;;;;;5038975;28;8740;-79
2022/01/31 04:00:29;;;;;;;;;52.50;41.75;21.90;93.00;;;;;;5063125;28;8820;-81
2022/01/31 04:02:56;;;;;;;;;44.00;36.50;22.00;92.30;;;;;;5055135;28;8740;-80
2022/01/31 04:05:23;;;;;;;;;52.75;41.25;22.20;91.50;;;;;;5058902;28;8785;-84
2022/01/31 04:07:49;;;;;;;;;48.50;36.50;22.20;90.60;;;;;;5058504;28;8846;-78
2022/01/31 04:10:16;;;;;;;;;45.75;36.75;22.30;89.80;;;;;;5046971;28;8768;-79
2022/01/31 04:12:43;;;;;;;;;49.00;36.00;22.30;88.40;;;;;;5062218;28;8745;-77
2022/01/31 04:15:13;;;;;;;;;48.25;37.50;22.40;87.70;;;;;;5081251;28;8741;-77
2022/01/31 04:17:39;;;;;;;;;48.00;37.75;22.40;90.00;;;;;;5062648;28;9122;-79
2022/01/31 04:20:08;;;;;;;;;55.50;44.25;22.50;89.00;;;;;;5061894;28;8764;-74
2022/01/31 04:22:46;;;;;;;;;39.00;33.00;22.60;91.90;;;;;;5058381;28;8832;-77
2022/01/31 04:25:28;;;;;;;;;45.25;36.75;22.60;90.40;;;;;;5043847;28;8740;-77
2022/01/31 04:28:02;;;;;;;;;47.50;37.00;;;;;;;;5059462;28;8862;-77
2022/01/31 04:30:35;;;;;;;;;48.75;38.00;22.80;99.90;;;;;;5042302;28;8759;-80
2022/01/31 04:33:02;;;;;;;;;47.50;39.25;22.80;90.10;;;;;;5058997;28;8879;-83
2022/01/31 04:35:29;;;;;;;;;47.50;37.75;23.00;90.10;;;;;;5057775;28;8783;-82
2022/01/31 04:37:58;;;;;;;;;51.25;40.00;23.00;88.80;;;;;;5057918;28;8768;-79
2022/01/31 04:40:25;;;;;;;;;49.75;37.75;23.10;88.40;;;;;;5077409;28;8753;-77
2022/01/31 04:42:52;;;;;;;;;47.50;36.75;23.20;88.60;;;;;;5079447;28;8772;-82
2022/01/31 04:45:18;;;;;;;;;41.25;33.75;;;;;;;;5077926;28;8875;-82
2022/01/31 04:47:45;;;;;;;;;46.25;36.00;23.20;85.10;;;;;;5061799;28;8767;-82
2022/01/31 04:50:12;;;;;;;;;43.50;34.75;;;;;;;;5077506;28;9449;-80
2022/01/31 04:52:42;;;;;;;;;43.50;33.50;23.50;84.50;;;;;;5046614;28;8764;-81
2022/01/31 04:55:10;;;;;;;;;45.25;34.50;23.60;84.70;;;;;;5058571;28;8790;-79
2022/01/31 04:57:37;;;;;;;;;48.00;35.00;23.70;83.40;;;;;;5041306;28;8780;-82
2022/01/31 05:00:05;;;;;;;;;46.00;35.50;23.80;83.10;;;;;;5032254;28;8767;-77
2022/01/31 05:02:32;;;;;;;;;50.75;37.50;23.80;83.20;;;;;;5039581;28;8818;-77
2022/01/31 05:04:58;;;;;;;;;40.00;30.75;23.90;79.90;;;;;;5040555;28;8751;-76
2022/01/31 05:07:25;;;;;;;;;38.75;32.25;24.00;72.60;;;;;;5044373;28;9390;-78
2022/01/31 05:09:52;;;;;;;;;32.00;25.50;24.00;72.10;;;;;;5078696;28;8798;-80
2022/01/31 05:12:19;;;;;;;;;33.00;29.50;24.10;67.20;;;;;;5077698;28;8744;-82
2022/01/31 05:14:46;;;;;;;;;29.50;25.50;24.10;70.60;;;;;;5077276;28;8737;-79
2022/01/31 05:17:12;;;;;;;;;37.00;30.00;24.30;71.60;;;;;;5077497;28;8721;-82
2022/01/31 05:19:39;;;;;;;;;46.00;34.00;24.30;69.00;;;;;;5077466;28;8747;-73
2022/01/31 05:22:06;;;;;;;;;35.50;30.50;24.30;72.00;;;;;;5079099;28;8745;-78
2022/01/31 05:24:32;;;;;;;;;42.50;34.25;24.30;73.20;;;;;;5076468;28;8716;-75
2022/01/31 05:26:59;;;;;;;;;43.75;31.50;24.50;73.90;;;;;;5060592;28;8721;-78
2022/01/31 05:29:26;;;;;;;;;43.00;33.75;24.60;73.30;;;;;;5059297;28;8761;-76
2022/01/31 05:31:53;;;;;;;;;36.50;32.25;24.60;73.10;;;;;;5076317;28;8767;-76
2022/01/31 05:34:20;;;;;;;;;40.00;33.50;24.60;72.80;;;;;;5060848;28;8754;-77
2022/01/31 05:36:47;;;;;;;;;15.25;15.25;24.60;73.90;;;;;;5060437;28;9485;-77
2022/01/31 05:39:14;;;;;;;;;46.75;33.50;24.70;72.70;;;;;;5077327;28;8775;-78
2022/01/31 05:41:41;;;;;;;;;37.25;32.25;24.80;72.90;;;;;;5076721;28;8800;-79
2022/01/31 05:44:08;;;;;;;;;40.50;32.25;24.80;72.60;;;;;;5077844;28;8761;-79
2022/01/31 05:46:34;;;;;;;;;38.50;31.50;24.80;73.60;;;;;;5060771;28;8752;-79
2022/01/31 05:49:01;;;;;;;;;39.50;31.25;24.80;74.20;;;;;;5060731;28;8789;-80
2022/01/31 05:51:28;;;;;;;;;36.25;32.00;24.90;74.20;;;;;;5072277;28;8788;-81
2022/01/31 05:53:54;;;;;;;;;40.75;31.00;25.10;72.40;;;;;;5041229;28;8774;-78
2022/01/31 05:56:21;;;;;;;;;40.00;31.75;25.20;71.00;;;;;;5040589;28;8783;-83
2022/01/31 05:58:49;;;;;;;;;37.50;30.50;25.30;71.30;;;;;;5042298;28;8786;-79
2022/01/31 06:01:18;;;;;;;;;38.50;33.00;25.50;71.00;;;;;;5057711;28;8776;-77
2022/01/31 06:03:46;;;;;;;;;40.75;33.50;25.50;72.10;;;;;;5056728;28;8774;-78
2022/01/31 06:06:13;;;;;;;;;43.50;29.75;25.60;71.90;;;;;;5042146;28;8899;-77
2022/01/31 06:08:39;;;;;;;;;44.75;35.00;25.60;70.10;;;;;;5076508;28;8955;-77
2022/01/31 06:11:06;;;;;;;;;37.25;31.50;25.50;69.50;;;;;;5077635;28;8764;-81
2022/01/31 06:13:34;;;;;;;;;33.25;29.00;25.60;69.90;;;;;;5076218;28;8725;-79
2022/01/31 06:16:02;;;;;;;;;36.25;27.25;25.80;68.80;;;;;;5077189;28;8752;-80
2022/01/31 06:18:29;;;;;;;;;32.00;28.00;25.90;66.60;;;;;;5059825;28;8757;-80
2022/01/31 06:20:55;;;;;;;;;30.25;23.00;25.80;65.80;;;;;;5076378;28;8818;-79
2022/01/31 06:23:23;;;;;;;;;32.50;26.25;26.10;63.50;;;;;;5076451;28;8773;-80
2022/01/31 06:25:50;;;;;;;;;33.00;27.75;26.10;65.20;;;;;;5075021;28;8760;-81
2022/01/31 06:28:20;;;;;;;;;33.50;26.75;26.20;66.20;;;;;;5077122;28;8737;-79
2022/01/31 06:30:47;;;;;;;;;19.50;18.00;26.30;67.00;;;;;;5043850;28;8741;-80
2022/01/31 06:33:16;;;;;;;;;32.25;30.25;26.30;66.60;;;;;;5076589;28;8748;-81
2022/01/31 06:35:47;;;;;;;;;32.50;28.50;26.40;64.80;;;;;;5076622;28;8792;-80
2022/01/31 06:38:14;;;;;;;;;29.75;22.50;26.30;64.10;;;;;;5076152;28;8772;-81
2022/01/31 06:40:41;;;;;;;;;23.75;21.50;26.40;64.50;;;;;;5075968;28;8793;-80
2022/01/31 06:43:07;;;;;;;;;28.25;23.25;26.30;61.80;;;;;;5076826;28;8741;-78
2022/01/31 06:45:34;;;;;;;;;24.50;20.75;26.40;62.20;;;;;;5076175;28;8733;-81
2022/01/31 06:48:01;;;;;;;;;25.00;22.75;26.50;59.30;;;;;;5076777;28;8737;-76
2022/01/31 06:50:28;;;;;;;;;20.75;16.25;26.50;59.20;;;;;;5076765;28;8760;-78
2022/01/31 06:52:56;;;;;;;;;29.75;24.50;26.40;60.90;;;;;;5060163;28;8732;-79
2022/01/31 06:55:23;;;;;;;;;21.75;20.50;26.50;61.50;;;;;;5057665;28;8724;-78
2022/01/31 06:57:51;;;;;;;;;25.25;20.50;26.50;61.60;;;;;;5040114;28;8755;-79
2022/01/31 07:00:19;;;;;;;;;26.75;22.50;26.60;60.00;;;;;;5038931;28;8739;-79
2022/01/31 07:02:50;;;;;;;;;26.50;21.50;26.70;60.80;;;;;;5039053;28;9380;-74
2022/01/31 07:05:17;;;;;;;;;22.25;19.00;26.80;61.10;;;;;;5056248;28;8759;-78
2022/01/31 07:07:44;;;;;;;;;28.75;25.00;26.70;60.20;;;;;;5054658;28;8717;-78
2022/01/31 07:10:11;;;;;;;;;26.75;23.00;26.70;59.50;;;;;;5077046;28;8759;-75
2022/01/31 07:12:40;;;;;;;;;23.25;20.75;26.60;60.60;;;;;;5075388;28;8744;-74
2022/01/31 07:15:09;;;;;;;;;28.00;24.75;26.60;61.30;;;;;;5076328;28;9508;-74
2022/01/31 07:17:39;;;;;;;;;26.50;24.75;26.70;60.00;;;;;;5075915;28;9662;-73
2022/01/31 07:20:10;;;;;;;;;28.25;23.25;26.90;60.20;;;;;;5076426;28;8756;-74
2022/01/31 07:22:38;;;;;;;;;22.75;20.00;27.10;59.90;;;;;;5045910;28;8778;-75
2022/01/31 07:25:09;;;;;;;;;31.75;28.25;27.00;59.70;;;;;;5039551;28;8732;-74
2022/01/31 07:27:36;;;;;;;;;27.25;25.75;27.10;59.50;;;;;;5039180;28;8813;-73
2022/01/31 07:30:04;;;;;;;;;31.25;24.50;27.10;59.20;;;;;;5038365;28;8747;-74
2022/01/31 07:32:30;;;;;;;;;30.00;23.50;26.90;60.20;;;;;;5056139;28;8751;-74
2022/01/31 07:34:57;;;;;;;;;35.00;27.00;26.80;61.60;;;;;;5038723;28;8779;-76
2022/01/31 07:37:24;;;;;;;;;33.75;25.75;26.90;62.30;;;;;;5050436;28;8741;-74
2022/01/31 07:39:51;;;;;;;;;28.00;24.00;27.10;59.30;;;;;;5058613;28;9606;-75
2022/01/31 07:42:18;;;;;;;;;32.00;26.50;27.30;58.70;;;;;;5074257;28;8824;-75
2022/01/31 07:44:46;;;;;;;;;29.75;26.50;27.40;59.10;;;;;;5074532;28;8732;-75
2022/01/31 07:47:12;;;;;;;;;26.75;23.75;27.30;58.90;;;;;;5058722;28;8757;-74
2022/01/31 07:49:39;;;;;;;;;28.00;23.00;27.30;58.30;;;;;;5074857;28;8799;-74
2022/01/31 07:52:07;;;;;;;;;32.75;28.00;27.30;57.30;;;;;;5066204;28;8783;-75
2022/01/31 07:54:34;;;;;;;;;28.50;26.00;27.30;58.00;;;;;;5054566;28;8895;-74
2022/01/31 07:57:00;;;;;;;;;23.50;22.25;27.30;58.10;;;;;;5038577;28;9486;-74
2022/01/31 07:59:27;;;;;;;;;28.75;26.00;27.40;59.80;;;;;;5038019;28;8762;-75
2022/01/31 08:01:54;;;;;;;;;25.25;22.25;27.40;59.80;;;;;;5038239;28;8796;-75
2022/01/31 08:04:20;;;;;;;;;29.75;23.75;27.40;59.40;;;;;;5039582;28;8885;-74
2022/01/31 08:06:50;;;;;;;;;30.75;22.00;27.40;58.70;;;;;;5045970;28;8876;-74
2022/01/31 08:09:17;;;;;;;;;20.50;18.00;27.50;58.90;;;;;;5074908;28;8757;-75
2022/01/31 08:11:44;;;;;;;;;22.50;20.25;27.80;58.50;;;;;;5058156;28;8773;-76
2022/01/31 08:14:11;;;;;;;;;25.25;20.75;27.90;62.00;;;;;;5074493;28;8772;-75
2022/01/31 08:16:39;;;;;;;;;25.00;23.00;27.90;59.50;;;;;;5075435;28;8853;-75
2022/01/31 08:19:08;;;;;;;;;20.25;18.25;27.90;57.50;;;;;;5075163;28;8737;-74
2022/01/31 08:21:35;;;;;;;;;24.75;22.25;28.10;56.80;;;;;;5068852;28;9526;-75
2022/01/31 08:24:02;;;;;;;;;29.00;25.00;28.00;55.80;;;;;;5037952;28;8801;-75
2022/01/31 08:26:29;;;;;;;;;26.00;22.25;28.00;56.60;;;;;;5037939;28;8782;-75
2022/01/31 08:29:08;;;;;;;;;28.25;23.75;28.10;56.80;;;;;;5054252;28;8759;-76
2022/01/31 08:31:37;;;;;;;;;20.75;20.75;28.20;57.50;;;;;;5039165;28;9443;-75
2022/01/31 08:34:18;;;;;;;;;56.75;42.50;28.00;56.00;;;;;;5038955;28;8833;-77
2022/01/31 08:36:44;;;;;;;;;32.75;26.50;27.90;56.80;;;;;;5046346;28;9588;-74
2022/01/31 08:39:17;;;;;;;;;46.00;33.50;27.80;57.70;;;;;;5074747;28;8796;-75
2022/01/31 08:41:48;;;;;;;;;40.25;31.00;28.00;58.40;;;;;;5075270;28;8824;-75
2022/01/31 08:44:17;;;;;;;;;32.50;26.75;28.20;57.20;;;;;;5074840;28;8764;-75
2022/01/31 08:46:48;;;;;;;;;28.50;25.25;28.10;55.50;;;;;;5060384;28;8818;-75
2022/01/31 08:49:18;;;;;;;;;29.25;23.50;28.10;57.30;;;;;;5058850;28;8753;-76
2022/01/31 08:51:45;;;;;;;;;27.50;22.50;28.20;57.80;;;;;;5071674;28;8917;-76
2022/01/31 08:54:12;;;;;;;;;30.75;27.25;28.00;54.50;;;;;;5041494;28;8799;-75
2022/01/31 08:56:44;;;;;;;;;27.50;22.50;27.80;58.60;;;;;;5057929;28;9501;-77
2022/01/31 08:59:18;;;;;;;;;19.75;17.75;27.80;57.10;;;;;;5042868;28;8759;-75
2022/01/31 09:02:06;;;;;;;;;28.75;25.25;27.70;57.90;;;;;;5034320;28;8776;-75
2022/01/31 09:04:35;;;;;;;;;27.00;25.50;27.90;59.40;;;;;;5058085;28;8793;-78
2022/01/31 09:07:07;;;;;;;;;30.00;24.00;28.00;58.40;;;;;;5067409;28;8785;-77
2022/01/31 09:09:34;;;;;;;;;25.25;23.50;28.20;56.50;;;;;;5078425;28;8772;-76
2022/01/31 09:12:02;;;;;;;;;25.50;21.75;28.20;55.70;;;;;;5078086;28;8787;-80
2022/01/31 09:14:29;;;;;;;;;27.25;23.00;28.10;56.10;;;;;;5077587;28;8784;-78
2022/01/31 09:16:56;;;;;;;;;23.25;21.00;28.00;56.00;;;;;;5077700;28;8788;-77
2022/01/31 09:19:23;;;;;;;;;23.50;23.50;28.00;56.80;;;;;;5061751;28;8760;-77
2022/01/31 09:21:50;;;;;;;;;24.75;23.25;28.10;55.80;;;;;;5070437;28;8803;-77
2022/01/31 09:24:20;;;;;;;;;25.50;22.25;28.10;56.50;;;;;;5041248;28;8778;-78
2022/01/31 09:26:47;;;;;;;;;28.50;23.00;28.10;55.70;;;;;;5057759;28;8763;-77
2022/01/31 09:29:16;;;;;;;;;19.00;18.25;28.20;58.20;;;;;;5057732;28;8794;-77
2022/01/31 09:31:42;;;;;;;;;25.50;21.50;28.30;55.70;;;;;;5041127;28;8865;-77
2022/01/31 09:34:09;;;;;;;;;28.00;21.50;28.30;55.70;;;;;;5058532;28;9403;-77
2022/01/31 09:36:36;;;;;;;;;23.25;22.00;28.40;56.50;;;;;;5045781;28;8900;-77
2022/01/31 09:39:03;;;;;;;;;30.50;25.25;28.30;56.00;;;;;;5060806;28;8763;-77
2022/01/31 09:41:34;;;;;;;;;23.50;21.75;28.10;56.70;;;;;;5060247;28;8828;-77
2022/01/31 09:47:05;;;;;;;;;27.75;23.75;28.20;57.40;;;;;;5077106;28;8871;-77
2022/01/31 09:49:22;;;;;;;;;24.50;19.00;28.10;57.60;;;;;;5077729;28;8729;-77
2022/01/31 09:51:49;;;;;;;;;26.00;21.75;28.20;56.60;;;;;;5069949;28;8783;-78
2022/01/31 09:54:16;;;;;;;;;26.00;21.75;28.30;54.60;;;;;;5040547;28;8759;-78
2022/01/31 09:56:43;;;;;;;;;28.75;23.00;28.20;55.90;;;;;;5040839;28;8794;-78
2022/01/31 09:59:11;;;;;;;;;27.00;23.50;28.10;55.80;;;;;;5041000;28;8790;-79
2022/01/31 10:01:46;;;;;;;;;22.00;19.75;28.00;55.30;;;;;;5055684;28;8803;-78
2022/01/31 10:04:17;;;;;;;;;24.50;21.00;27.80;59.30;;;;;;5042192;28;8761;-78
2022/01/31 10:06:49;;;;;;;;;26.75;22.00;27.60;59.30;;;;;;5046595;28;8891;-78
2022/01/31 10:09:20;;;;;;;;;24.75;19.00;27.70;63.30;;;;;;5076921;28;8774;-79
2022/01/31 10:16:25;;;;;;;;;23.25;20.50;27.60;61.00;;;;;;5077158;28;8768;-78
2022/01/31 10:17:43;;;;;;;;;22.75;20.50;27.60;58.30;;;;;;5077678;28;8776;-77
2022/01/31 10:20:17;;;;;;;;;27.50;20.50;27.70;59.00;;;;;;5077508;28;8765;-77
2022/01/31 10:22:44;;;;;;;;;28.25;20.75;27.60;60.60;;;;;;5078208;28;8812;-78
2022/01/31 10:25:14;;;;;;;;;22.50;19.00;27.50;61.20;;;;;;5062470;28;8756;-78
2022/01/31 10:27:46;;;;;;;;;27.00;23.25;27.40;61.30;;;;;;5033835;28;8808;-77
2022/01/31 10:30:15;;;;;;;;;22.50;19.75;27.40;60.60;;;;;;5061289;28;9448;-79
2022/01/31 10:32:47;;;;;;;;;27.00;20.75;27.40;60.50;;;;;;5061457;28;9456;-78
2022/01/31 10:35:16;;;;;;;;;26.25;22.00;27.40;60.50;;;;;;5060556;28;8809;-78
2022/01/31 10:37:43;;;;;;;;;28.00;24.75;27.30;60.90;;;;;;5060460;28;8761;-78
2022/01/31 10:45:52;;;;;;;;;27.75;25.50;27.10;61.20;;;;;;5077668;28;8752;-79
2022/01/31 10:54:07;;;;;;;;;28.00;26.50;26.70;61.00;;;;;;5062089;28;9522;-78
2022/01/31 10:56:39;;;;;;;;;31.25;26.50;26.60;61.80;;;;;;5061872;28;8772;-78
2022/01/31 10:59:11;;;;;;;;;31.00;27.00;26.40;62.30;;;;;;5077046;28;8806;-78
2022/01/31 11:01:38;;;;;;;;;24.50;22.25;26.20;63.60;;;;;;5061105;28;8832;-78
2022/01/31 11:04:14;;;;;;;;;33.75;30.25;26.00;64.10;;;;;;5067547;28;8773;-78
2022/01/31 11:06:41;;;;;;;;;48.50;38.00;25.90;64.40;;;;;;5059860;28;8795;-78
2022/01/31 11:09:10;;;;;;;;;43.25;34.50;25.80;67.10;;;;;;5068698;28;8784;-78
2022/01/31 11:11:38;;;;;;;;;43.75;35.50;25.60;68.40;;;;;;5059978;28;8768;-78
2022/01/31 11:14:08;;;;;;;;;39.50;31.50;25.40;68.80;;;;;;5076109;28;8764;-78
2022/01/31 11:16:35;;;;;;;;;42.00;34.75;25.40;70.10;;;;;;5058948;28;8737;-78
2022/01/31 11:19:06;;;;;;;;;40.25;31.00;25.30;71.50;;;;;;5076803;28;8769;-78
2022/01/31 11:21:35;;;;;;;;;46.50;34.00;25.10;69.70;;;;;;5070407;28;8930;-78
2022/01/31 11:24:03;;;;;;;;;43.75;33.25;25.00;72.30;;;;;;5039806;28;8779;-78
2022/01/31 11:26:36;;;;;;;;;45.00;38.00;25.00;81.10;;;;;;5039130;28;8751;-77
2022/01/31 11:29:04;;;;;;;;;52.25;42.00;24.90;90.70;;;;;;5039524;28;8751;-78
2022/01/31 11:31:31;;;;;;;;;61.20;47.60;24.70;91.10;;;;;;5039047;28;8752;-78
2022/01/31 11:33:58;;;;;;;;;45.75;34.25;24.60;83.90;;;;;;5039785;28;8817;-78
2022/01/31 11:36:25;;;;;;;;;50.50;39.25;24.50;84.30;;;;;;5058975;28;8793;-78
2022/01/31 11:38:52;;;;;;;;;46.75;33.50;24.40;84.10;;;;;;5075299;28;8804;-78
2022/01/31 11:41:19;;;;;;;;;45.75;36.50;24.40;78.20;;;;;;5075074;28;8800;-78
2022/01/31 11:43:59;;;;;;;;;51.25;37.25;24.30;87.20;;;;;;5075762;28;8793;-78
2022/01/31 11:46:26;;;;;;;;;47.25;36.50;24.30;88.30;;;;;;5058490;28;8745;-78
2022/01/31 11:48:56;;;;;;;;;51.25;40.25;24.00;84.00;;;;;;5059508;28;8749;-78
2022/01/31 11:51:23;;;;;;;;;48.50;38.50;23.90;88.00;;;;;;5075511;28;8793;-77
2022/01/31 11:53:50;;;;;;;;;47.75;38.25;23.90;90.30;;;;;;5059139;28;8776;-79
2022/01/31 11:56:22;;;;;;;;;49.25;38.00;23.70;90.70;;;;;;5059169;28;8769;-78
2022/01/31 11:58:52;;;;;;;;;46.75;35.00;23.70;89.30;;;;;;5059125;28;8759;-78
2022/01/31 12:01:20;;;;;;;;;45.00;36.50;23.50;86.00;;;;;;5059248;28;8773;-77
2022/01/31 12:04:08;;;;;;;;;48.50;35.75;23.30;87.10;;;;;;5075394;28;8749;-78
2022/01/31 12:06:35;;;;;;;;;61.50;43.50;23.00;92.20;;;;;;5074706;28;8789;-78
2022/01/31 12:09:07;;;;;;;;;54.50;41.00;23.00;92.60;;;;;;5058458;28;8797;-78
2022/01/31 12:11:53;;;;;;;;;56.00;45.50;23.10;91.50;;;;;;5057951;28;8772;-77
2022/01/31 12:14:38;;;;;;;;;54.50;41.75;23.10;92.40;;;;;;5058717;28;8764;-77
2022/01/31 12:17:36;;;;;;;;;64.20;47.80;23.00;92.60;;;;;;5077530;28;8752;-77
2022/01/31 12:20:14;;;;;;;;;69.20;53.60;23.00;93.20;;;;;;5061209;28;8757;-78
2022/01/31 12:22:47;;;;;;;;;67.40;53.00;23.00;94.00;;;;;;5046821;28;8810;-78
2022/01/31 12:25:30;;;;;;;;;69.00;52.80;23.00;93.70;;;;;;5059046;28;8780;-78
2022/01/31 12:27:57;;;;;;;;;65.00;49.00;22.90;93.20;;;;;;5026515;28;8774;-77
2022/01/31 12:30:36;;;;;;;;;68.60;53.60;22.60;93.20;;;;;;5058800;28;9412;-78
2022/01/31 12:33:03;;;;;;;;;86.40;74.00;22.20;96.20;;;;;;5026093;28;8798;-77
2022/01/31 12:35:40;;;;;;;;;81.60;68.00;22.00;96.60;;;;;;5058881;28;8823;-78
2022/01/31 12:38:07;;;;;;;;;70.60;53.40;22.10;96.50;;;;;;5076648;28;8757;-78
2022/01/31 12:40:39;;;;;;;;;66.40;49.80;22.00;96.80;;;;;;5078826;28;8827;-77
2022/01/31 12:45:40;;;;;;;;;71.20;53.40;22.00;96.50;;;;;;5078535;28;8749;-78
2022/01/31 12:48:07;;;;;;;;;73.60;54.00;22.00;96.50;;;;;;5079908;28;8863;-77
2022/01/31 12:50:49;;;;;;;;;74.60;56.20;22.10;97.00;;;;;;5079363;28;8741;-77
2022/01/31 12:56:29;;;;;;;;;75.20;56.40;22.00;97.90;;;;;;5080297;28;8775;-77
2022/01/31 12:59:15;;;;;;;;;72.20;56.20;22.00;98.10;;;;;;5076929;28;9409;-78
2022/01/31 13:01:46;;;;;;;;;67.20;51.20;21.90;97.70;;;;;;5078549;28;8940;-78
2022/01/31 13:04:14;;;;;;;;;76.60;58.60;21.90;98.00;;;;;;5079503;28;8799;-77
2022/01/31 13:06:49;;;;;;;;;66.60;51.60;21.80;97.30;;;;;;5078106;28;8789;-77
2022/01/31 13:09:16;;;;;;;;;75.40;59.40;21.60;97.60;;;;;;5044989;28;8760;-77